< < Back
Terminal Aerodrome Forecast


Current Version              Previous Versions:   1  2  3  4  5  6  7  8  9  

Terminal Aerodrome Forecast

421
FTUS44 KMRX 191120
TAFCHA
TAF
KCHA 191120Z 1912/2012 01003KT P6SM SCT060 OVC100
     FM191900 02010KT P6SM SCT100 BKN200
     FM192300 VRB03KT P6SM SCT100=

Latest METAR

966
SAUS80 KWBC 200300 RRC
MTRCHA
METAR KCHA 200253Z 00000KT 10SM SCT080 SCT095 15/08 A3018 RMK AO2 SLP216
T01500078 50010


USA.gov is the U.S. government's official web portal to all federal, state and local government web resources and services.